Time;durP1;ratioP1;P1;durP2;ratioP2;P2;SDS_P1;SDS_P2;PMS_P1;PMS_P2;Temp;Humidity;BMP_temperature;BMP_pressure;BME280_temperature;BME280_humidity;BME280_pressure;Samples;Min_cycle;Max_cycle;Signal;HPM_P1;HPM_P2
2022/07/14 00:01:51;;;;;;;17.63;4.20;;;;;;;;;;5057934;28;20047;-58
2022/07/14 00:04:17;;;;;;;19.50;4.50;;;;;;;;;;5058272;28;20036;-59
2022/07/14 00:06:43;;;;;;;15.70;3.97;;;;;;;;;;5060580;28;20106;-59
2022/07/14 00:09:09;;;;;;;21.50;4.83;;;;;;;;;;5057324;28;20514;-58
2022/07/14 00:11:35;;;;;;;18.83;4.50;;;;;;;;;;5069880;28;20081;-59
2022/07/14 00:14:01;;;;;;;17.70;3.97;;;;;;;;;;5071003;28;20074;-59
2022/07/14 00:16:27;;;;;;;17.87;4.30;;;;;;;;;;5071615;28;20455;-59
2022/07/14 00:18:53;;;;;;;20.53;4.37;;;;;;;;;;5071021;28;20443;-59
2022/07/14 00:21:19;;;;;;;15.80;4.40;;;;;;;;;;5071361;28;20041;-59
2022/07/14 00:23:46;;;;;;;18.70;4.63;;;;;;;;;;5071427;28;20063;-59
2022/07/14 00:26:12;;;;;;;13.87;3.77;;;;;;;;;;5071114;28;20040;-59
2022/07/14 00:28:39;;;;;;;18.63;4.43;;;;;;;;;;5071077;28;20036;-59
2022/07/14 00:31:09;;;;;;;16.90;4.17;;;;;;;;;;5071073;28;20048;-58
2022/07/14 00:33:35;;;;;;;14.63;3.83;;;;;;;;;;5070656;28;20123;-58
2022/07/14 00:36:01;;;;;;;19.00;4.10;;;;;;;;;;5070907;28;20049;-59
2022/07/14 00:38:27;;;;;;;15.77;5.10;;;;;;;;;;5071183;28;20063;-59
2022/07/14 00:40:53;;;;;;;18.17;4.80;;;;;;;;;;5070817;28;20102;-58
2022/07/14 00:43:20;;;;;;;16.63;4.80;;;;;;;;;;5070691;28;20052;-59
2022/07/14 00:45:46;;;;;;;15.57;5.73;;;;;;;;;;5070556;28;20461;-58
2022/07/14 00:48:16;;;;;;;17.47;4.57;;;;;;;;;;5070863;28;20048;-59
2022/07/14 00:50:43;;;;;;;18.87;4.57;;;;;;;;;;5070713;28;20135;-59
2022/07/14 00:53:10;;;;;;;18.57;4.83;;;;;;;;;;5070572;28;20522;-59
2022/07/14 00:55:37;;;;;;;21.90;5.00;;;;;;;;;;5070470;28;20578;-59
2022/07/14 00:58:03;;;;;;;18.77;5.27;;;;;;;;;;5070274;28;20045;-58
2022/07/14 01:00:30;;;;;;;14.17;5.13;;;;;;;;;;5070589;28;20388;-59
2022/07/14 01:02:56;;;;;;;18.93;5.10;;;;;;;;;;5070448;28;20082;-59
2022/07/14 01:05:22;;;;;;;18.83;5.10;;;;;;;;;;5070159;28;20127;-59
2022/07/14 01:07:48;;;;;;;20.07;5.93;;;;;;;;;;5070147;28;20136;-59
2022/07/14 01:10:14;;;;;;;21.83;6.03;;;;;;;;;;5070518;28;20063;-59
2022/07/14 01:12:47;;;;;;;22.47;5.73;;;;;;;;;;5070267;28;20123;-58
2022/07/14 01:15:20;;;;;;;19.75;6.88;;;;;;;;;;5070116;28;20060;-59
2022/07/14 01:17:47;;;;;;;27.73;6.63;;;;;;;;;;5070230;28;20056;-59
2022/07/14 01:20:14;;;;;;;23.40;6.00;;;;;;;;;;5069683;28;20093;-58
2022/07/14 01:22:40;;;;;;;19.70;6.10;;;;;;;;;;5070154;28;20047;-59
2022/07/14 01:25:07;;;;;;;24.67;6.57;;;;;;;;;;5070026;28;20174;-59
2022/07/14 01:27:33;;;;;;;19.77;7.03;;;;;;;;;;5069809;28;20068;-59
2022/07/14 01:30:00;;;;;;;27.10;6.20;;;;;;;;;;5069450;28;20510;-59
2022/07/14 01:32:26;;;;;;;23.83;6.73;;;;;;;;;;5070266;28;20032;-59
2022/07/14 01:34:52;;;;;;;23.20;6.90;;;;;;;;;;5069510;28;20044;-59
2022/07/14 01:37:19;;;;;;;18.40;5.73;;;;;;;;;;5070231;28;20044;-59
2022/07/14 01:39:45;;;;;;;24.67;6.80;;;;;;;;;;5069743;28;20041;-59
2022/07/14 01:42:11;;;;;;;22.40;8.70;;;;;;;;;;5069694;28;20410;-59
2022/07/14 01:44:37;;;;;;;21.20;7.80;;;;;;;;;;5069714;28;20060;-59
2022/07/14 01:47:03;;;;;;;16.20;6.50;;;;;;;;;;5069002;28;20040;-59
2022/07/14 01:49:30;;;;;;;16.60;6.57;;;;;;;;;;5069761;28;20474;-59
2022/07/14 01:51:56;;;;;;;24.70;6.67;;;;;;;;;;5069669;28;20044;-58
2022/07/14 01:54:24;;;;;;;11.97;5.00;;;;;;;;;;5069732;28;20048;-59
2022/07/14 01:56:50;;;;;;;17.83;6.30;;;;;;;;;;5069487;28;20048;-59
2022/07/14 01:59:16;;;;;;;18.33;6.80;;;;;;;;;;5069382;28;20176;-58
2022/07/14 02:01:44;;;;;;;20.07;5.83;;;;;;;;;;5069693;28;20094;-58
2022/07/14 02:04:14;;;;;;;21.30;7.07;;;;;;;;;;5069738;28;20053;-58
2022/07/14 02:06:43;;;;;;;15.93;5.23;;;;;;;;;;5069544;28;20053;-59
2022/07/14 02:09:09;;;;;;;13.30;6.17;;;;;;;;;;5069737;28;20128;-59
2022/07/14 02:14:20;;;;;;;14.60;6.33;;;;;;;;;;5070064;28;20052;-59
2022/07/14 02:16:46;;;;;;;18.77;5.80;;;;;;;;;;5069290;28;20417;-58
2022/07/14 02:19:12;;;;;;;16.53;6.67;;;;;;;;;;5069522;28;20467;-59
2022/07/14 02:21:40;;;;;;;17.17;6.07;;;;;;;;;;5069711;28;20067;-58
2022/07/14 02:24:07;;;;;;;10.67;4.73;;;;;;;;;;5069386;28;20064;-58
2022/07/14 02:26:33;;;;;;;13.03;5.60;;;;;;;;;;5068935;28;20073;-59
2022/07/14 02:29:00;;;;;;;12.47;6.43;;;;;;;;;;5069344;28;20063;-59
2022/07/14 02:31:26;;;;;;;23.90;7.10;;;;;;;;;;5069267;28;20037;-59
2022/07/14 02:33:52;;;;;;;17.43;6.13;;;;;;;;;;5069485;28;20399;-58
2022/07/14 02:36:18;;;;;;;15.07;5.93;;;;;;;;;;5069413;28;20059;-59
2022/07/14 02:38:44;;;;;;;21.13;7.10;;;;;;;;;;5069139;28;20943;-58
2022/07/14 02:41:10;;;;;;;22.30;7.57;;;;;;;;;;5068917;28;20064;-59
2022/07/14 02:43:37;;;;;;;21.43;6.63;;;;;;;;;;5069127;28;20061;-59
2022/07/14 02:46:03;;;;;;;15.63;6.43;;;;;;;;;;5069414;28;20048;-59
2022/07/14 02:48:29;;;;;;;15.67;7.07;;;;;;;;;;5068909;28;20045;-59
2022/07/14 02:50:59;;;;;;;18.60;8.57;;;;;;;;;;5069170;28;20522;-59
2022/07/14 02:53:25;;;;;;;18.50;9.13;;;;;;;;;;5069059;28;20123;-59
2022/07/14 02:55:51;;;;;;;18.10;8.90;;;;;;;;;;5067743;28;20064;-58
2022/07/14 02:58:18;;;;;;;23.70;8.30;;;;;;;;;;5070470;28;20066;-59
2022/07/14 03:00:44;;;;;;;17.87;7.47;;;;;;;;;;5073049;28;20135;-59
2022/07/14 03:03:10;;;;;;;23.03;9.03;;;;;;;;;;5072776;28;20052;-59
2022/07/14 03:05:36;;;;;;;19.13;8.63;;;;;;;;;;5072974;28;20052;-59
2022/07/14 03:08:02;;;;;;;21.10;8.83;;;;;;;;;;5072521;28;20032;-58
2022/07/14 03:10:28;;;;;;;16.60;8.50;;;;;;;;;;5072305;28;20047;-58
2022/07/14 03:12:54;;;;;;;23.30;8.77;;;;;;;;;;5072486;28;20045;-59
2022/07/14 03:15:20;;;;;;;15.07;6.77;;;;;;;;;;5072586;28;20063;-59
2022/07/14 03:17:46;;;;;;;10.37;5.63;;;;;;;;;;5072637;28;20123;-58
2022/07/14 03:20:13;;;;;;;13.63;6.47;;;;;;;;;;5072849;28;20123;-59
2022/07/14 03:22:39;;;;;;;18.63;6.90;;;;;;;;;;5072130;28;20622;-59
2022/07/14 03:25:08;;;;;;;14.43;6.20;;;;;;;;;;5072519;28;20135;-58
2022/07/14 03:27:35;;;;;;;14.90;6.53;;;;;;;;;;5072273;28;20044;-59
2022/07/14 03:30:04;;;;;;;21.90;7.33;;;;;;;;;;5070294;28;20051;-58
2022/07/14 03:32:30;;;;;;;18.10;8.00;;;;;;;;;;5071401;28;20040;-58
2022/07/14 03:34:57;;;;;;;20.33;9.07;;;;;;;;;;5069620;28;20048;-59
2022/07/14 03:37:23;;;;;;;24.70;8.73;;;;;;;;;;5070748;28;20761;-58
2022/07/14 03:39:49;;;;;;;30.67;11.67;;;;;;;;;;5070921;28;20068;-59
2022/07/14 03:42:15;;;;;;;19.83;8.17;;;;;;;;;;5070614;28;20179;-59
2022/07/14 03:44:42;;;;;;;24.73;10.03;;;;;;;;;;5070548;28;20059;-59
2022/07/14 03:47:08;;;;;;;19.37;9.77;;;;;;;;;;5070940;28;20418;-59
2022/07/14 03:49:34;;;;;;;17.97;9.10;;;;;;;;;;5071045;28;20036;-59
2022/07/14 03:52:00;;;;;;;16.63;8.53;;;;;;;;;;5070907;28;20540;-59
2022/07/14 03:54:26;;;;;;;30.37;12.77;;;;;;;;;;5070761;28;20048;-58
2022/07/14 03:56:52;;;;;;;22.87;9.27;;;;;;;;;;5070598;28;20051;-59
2022/07/14 03:59:19;;;;;;;27.13;10.63;;;;;;;;;;5071231;28;20048;-59
2022/07/14 04:01:45;;;;;;;26.17;10.30;;;;;;;;;;5070699;28;20041;-59
2022/07/14 04:04:11;;;;;;;23.17;10.30;;;;;;;;;;5071029;28;20044;-59
2022/07/14 04:06:37;;;;;;;11.90;5.07;;;;;;;;;;5070946;28;20076;-59
2022/07/14 04:09:03;;;;;;;12.07;5.47;;;;;;;;;;5070771;28;20063;-59
2022/07/14 04:11:29;;;;;;;16.43;6.20;;;;;;;;;;5070670;28;20475;-59
2022/07/14 04:13:55;;;;;;;12.70;4.57;;;;;;;;;;5069811;28;20040;-59
2022/07/14 04:16:21;;;;;;;14.77;7.83;;;;;;;;;;5071078;28;20041;-58
2022/07/14 04:18:47;;;;;;;16.93;7.50;;;;;;;;;;5070306;28;20402;-59
2022/07/14 04:21:13;;;;;;;18.70;8.07;;;;;;;;;;5071060;28;20059;-59
2022/07/14 04:23:39;;;;;;;16.20;6.90;;;;;;;;;;5070639;28;20539;-59
2022/07/14 04:26:06;;;;;;;16.97;7.00;;;;;;;;;;5070230;28;20052;-59
2022/07/14 04:28:32;;;;;;;15.50;7.03;;;;;;;;;;5070364;28;20048;-59
2022/07/14 04:30:58;;;;;;;20.20;7.17;;;;;;;;;;5070515;28;20052;-59
2022/07/14 04:33:24;;;;;;;15.40;7.20;;;;;;;;;;5070782;28;20051;-59
2022/07/14 04:35:50;;;;;;;13.53;6.83;;;;;;;;;;5070582;28;20427;-58
2022/07/14 04:38:17;;;;;;;17.37;6.57;;;;;;;;;;5070542;28;20041;-58
2022/07/14 04:40:50;;;;;;;14.80;5.73;;;;;;;;;;5070347;28;20041;-58
2022/07/14 04:43:17;;;;;;;17.98;6.45;;;;;;;;;;5069820;28;20052;-58
2022/07/14 04:45:43;;;;;;;14.03;5.90;;;;;;;;;;5070350;28;20048;-58
2022/07/14 04:48:09;;;;;;;11.23;5.33;;;;;;;;;;5070587;28;20048;-58
2022/07/14 04:53:20;;;;;;;10.87;6.13;;;;;;;;;;5070092;28;20131;-58
2022/07/14 04:55:46;;;;;;;17.33;8.10;;;;;;;;;;5069737;28;20048;-58
2022/07/14 04:58:12;;;;;;;23.80;9.67;;;;;;;;;;5070116;28;20123;-58
2022/07/14 05:00:38;;;;;;;22.30;8.50;;;;;;;;;;5069580;28;20139;-58
2022/07/14 05:03:04;;;;;;;19.37;8.80;;;;;;;;;;5070103;28;20183;-58
2022/07/14 05:05:30;;;;;;;18.27;8.13;;;;;;;;;;5069757;28;20044;-58
2022/07/14 05:07:56;;;;;;;20.53;8.10;;;;;;;;;;5069822;28;20048;-59
2022/07/14 05:10:22;;;;;;;24.03;8.17;;;;;;;;;;5070234;28;20155;-58
2022/07/14 05:12:48;;;;;;;21.93;9.10;;;;;;;;;;5069885;28;20049;-58
2022/07/14 05:15:14;;;;;;;20.40;8.00;;;;;;;;;;5069652;28;20166;-59
2022/07/14 05:17:40;;;;;;;23.33;8.70;;;;;;;;;;5069304;28;20462;-59
2022/07/14 05:20:06;;;;;;;20.97;9.77;;;;;;;;;;5069350;28;20049;-59
2022/07/14 05:22:39;;;;;;;19.27;9.53;;;;;;;;;;5068501;28;20051;-58
2022/07/14 05:25:06;;;;;;;20.58;8.50;;;;;;;;;;5069424;28;20051;-58
2022/07/14 05:27:32;;;;;;;23.30;10.60;;;;;;;;;;5069034;28;20048;-59
2022/07/14 05:29:58;;;;;;;26.67;8.57;;;;;;;;;;5069315;28;20596;-58
2022/07/14 05:32:24;;;;;;;22.50;8.87;;;;;;;;;;5068922;28;20127;-58
2022/07/14 05:34:50;;;;;;;22.10;9.30;;;;;;;;;;5069357;28;20182;-58
2022/07/14 05:37:16;;;;;;;18.90;8.53;;;;;;;;;;5069485;28;20041;-59
2022/07/14 05:39:42;;;;;;;22.60;8.17;;;;;;;;;;5069232;28;20045;-59
2022/07/14 05:42:08;;;;;;;20.57;7.90;;;;;;;;;;5068504;28;20159;-59
2022/07/14 05:44:35;;;;;;;19.90;7.53;;;;;;;;;;5069378;28;20044;-59
2022/07/14 05:47:01;;;;;;;16.17;7.30;;;;;;;;;;5068794;28;20464;-59
2022/07/14 05:49:27;;;;;;;20.27;7.47;;;;;;;;;;5069288;28;20490;-59
2022/07/14 05:51:53;;;;;;;29.87;9.17;;;;;;;;;;5068799;28;20099;-59
2022/07/14 05:54:19;;;;;;;24.70;7.20;;;;;;;;;;5068978;28;20048;-59
2022/07/14 05:56:45;;;;;;;22.27;8.57;;;;;;;;;;5069207;28;20494;-58
2022/07/14 05:59:11;;;;;;;21.10;8.90;;;;;;;;;;5068942;28;20079;-58
2022/07/14 06:01:37;;;;;;;23.33;8.37;;;;;;;;;;5068953;28;20119;-59
2022/07/14 06:04:03;;;;;;;14.87;4.87;;;;;;;;;;5069036;28;20453;-59
2022/07/14 06:06:29;;;;;;;13.30;5.50;;;;;;;;;;5068663;28;20061;-59
2022/07/14 06:08:55;;;;;;;14.07;4.90;;;;;;;;;;5069066;28;20407;-59
2022/07/14 06:11:21;;;;;;;16.30;4.60;;;;;;;;;;5068611;28;20048;-58
2022/07/14 06:13:47;;;;;;;17.13;4.40;;;;;;;;;;5069124;28;20479;-58
2022/07/14 06:16:14;;;;;;;20.47;5.00;;;;;;;;;;5068851;28;20067;-59
2022/07/14 06:18:40;;;;;;;17.33;4.17;;;;;;;;;;5069247;28;20045;-58
2022/07/14 06:21:09;;;;;;;11.63;3.67;;;;;;;;;;5068823;28;20047;-59
2022/07/14 06:23:35;;;;;;;11.57;3.27;;;;;;;;;;5068940;28;20051;-59
2022/07/14 06:26:11;;;;;;;12.57;3.67;;;;;;;;;;5068994;28;20383;-59
2022/07/14 06:28:37;;;;;;;14.47;3.40;;;;;;;;;;5068689;28;20449;-59
2022/07/14 06:31:04;;;;;;;11.53;3.07;;;;;;;;;;5057649;28;20147;-59
2022/07/14 06:33:30;;;;;;;11.93;2.70;;;;;;;;;;5060024;28;20067;-59
2022/07/14 06:35:56;;;;;;;13.63;3.20;;;;;;;;;;5060107;28;20045;-59
2022/07/14 06:38:22;;;;;;;9.63;2.90;;;;;;;;;;5062367;28;20508;-59
2022/07/14 06:40:48;;;;;;;12.07;2.43;;;;;;;;;;5059327;28;20440;-59
2022/07/14 06:43:14;;;;;;;15.40;2.47;;;;;;;;;;5061578;28;20052;-59
2022/07/14 06:45:41;;;;;;;11.87;3.47;;;;;;;;;;5062703;28;20572;-61
2022/07/14 06:48:07;;;;;;;11.73;2.33;;;;;;;;;;5060471;28;20045;-59
2022/07/14 06:50:34;;;;;;;9.27;2.03;;;;;;;;;;5060848;28;20094;-59
2022/07/14 06:53:00;;;;;;;10.43;1.83;;;;;;;;;;5062280;28;20045;-59
2022/07/14 06:55:26;;;;;;;14.77;3.33;;;;;;;;;;5060146;28;20079;-59
2022/07/14 06:57:52;;;;;;;6.90;1.53;;;;;;;;;;5061443;28;20441;-59
2022/07/14 07:00:18;;;;;;;11.67;2.17;;;;;;;;;;5061861;28;20485;-59
2022/07/14 07:02:44;;;;;;;12.43;2.23;;;;;;;;;;5059744;28;20526;-59
2022/07/14 07:08:01;;;;;;;11.63;2.00;;;;;;;;;;5061172;28;20503;-59
2022/07/14 07:10:27;;;;;;;9.80;2.30;;;;;;;;;;5058842;28;20041;-59
2022/07/14 07:12:53;;;;;;;10.90;2.07;;;;;;;;;;5060058;28;20108;-59
2022/07/14 07:15:20;;;;;;;10.63;2.03;;;;;;;;;;5067297;28;20049;-59
2022/07/14 07:17:46;;;;;;;6.33;1.40;;;;;;;;;;5071916;28;20066;-59
2022/07/14 07:20:13;;;;;;;7.40;1.57;;;;;;;;;;5069779;28;20074;-59
2022/07/14 07:22:39;;;;;;;10.77;2.17;;;;;;;;;;5050956;28;20132;-58
2022/07/14 07:25:06;;;;;;;8.63;1.90;;;;;;;;;;5060453;28;20080;-59
2022/07/14 07:27:32;;;;;;;9.00;1.80;;;;;;;;;;5069999;28;20496;-59
2022/07/14 07:29:59;;;;;;;8.10;1.83;;;;;;;;;;5071805;28;20102;-59
2022/07/14 07:32:25;;;;;;;8.47;1.57;;;;;;;;;;5068105;28;20083;-59
2022/07/14 07:34:51;;;;;;;6.53;1.30;;;;;;;;;;5059426;28;20076;-59
2022/07/14 07:37:17;;;;;;;8.40;2.23;;;;;;;;;;5053710;28;20090;-59
2022/07/14 07:39:43;;;;;;;8.73;1.67;;;;;;;;;;5059002;28;20541;-59
2022/07/14 07:42:10;;;;;;;7.37;1.40;;;;;;;;;;5054890;28;20098;-59
2022/07/14 07:44:36;;;;;;;6.03;1.47;;;;;;;;;;5050049;28;20057;-59
2022/07/14 07:47:03;;;;;;;5.80;1.60;;;;;;;;;;5055306;28;20040;-59
2022/07/14 07:49:29;;;;;;;7.73;1.33;;;;;;;;;;5050889;28;20133;-59
2022/07/14 07:52:03;;;;;;;5.67;1.63;;;;;;;;;;5051075;28;20507;-59
2022/07/14 07:54:29;;;;;;;6.55;1.30;;;;;;;;;;5054092;28;20033;-59
2022/07/14 07:56:57;;;;;;;5.27;1.60;;;;;;;;;;5061067;28;20190;-59
2022/07/14 07:59:23;;;;;;;7.07;1.00;;;;;;;;;;5058626;28;20044;-59
2022/07/14 08:01:49;;;;;;;9.63;1.53;;;;;;;;;;5069364;28;21093;-59
2022/07/14 08:04:15;;;;;;;4.83;1.10;;;;;;;;;;5071022;28;20129;-60
2022/07/14 08:06:42;;;;;;;11.17;1.73;;;;;;;;;;5071374;28;20036;-58
2022/07/14 08:09:11;;;;;;;3.27;1.10;;;;;;;;;;5071010;28;20044;-58
2022/07/14 08:11:40;;;;;;;4.23;1.23;;;;;;;;;;5071527;28;20506;-59
2022/07/14 08:14:47;;;;;;;6.00;1.37;;;;;;;;;;5071311;28;20041;-58
2022/07/14 08:16:53;;;;;;;3.83;0.80;;;;;;;;;;5070819;28;20541;-59
2022/07/14 08:19:19;;;;;;;10.10;1.83;;;;;;;;;;5069801;28;20044;-59
2022/07/14 08:21:45;;;;;;;6.40;1.67;;;;;;;;;;5070658;28;20418;-59
2022/07/14 08:24:11;;;;;;;5.47;1.23;;;;;;;;;;5070979;28;20098;-60
2022/07/14 08:26:39;;;;;;;4.43;1.30;;;;;;;;;;5070473;28;20044;-59
2022/07/14 08:29:05;;;;;;;6.87;1.13;;;;;;;;;;5071021;28;20060;-60
2022/07/14 08:31:31;;;;;;;4.13;1.10;;;;;;;;;;5070310;28;20770;-59
2022/07/14 08:33:58;;;;;;;5.77;1.00;;;;;;;;;;5070817;28;20094;-59
2022/07/14 08:36:24;;;;;;;4.30;1.10;;;;;;;;;;5070175;28;20135;-59
2022/07/14 08:38:50;;;;;;;6.23;1.20;;;;;;;;;;5070614;28;20155;-60
2022/07/14 08:41:16;;;;;;;5.57;1.17;;;;;;;;;;5069993;28;20059;-60
2022/07/14 08:43:42;;;;;;;5.57;0.90;;;;;;;;;;5060529;28;20045;-60
2022/07/14 08:46:08;;;;;;;3.53;0.97;;;;;;;;;;5059412;28;20041;-60
2022/07/14 08:48:34;;;;;;;4.33;1.07;;;;;;;;;;5054568;28;20041;-60
2022/07/14 08:51:00;;;;;;;4.23;0.63;;;;;;;;;;5059868;28;20132;-60
2022/07/14 08:53:27;;;;;;;3.40;1.15;;;;;;;;;;5057850;28;20499;-60
2022/07/14 08:55:53;;;;;;;4.05;0.80;;;;;;;;;;5058710;28;20041;-60
2022/07/14 08:58:19;;;;;;;3.83;0.85;;;;;;;;;;5056442;28;20055;-60
2022/07/14 09:00:45;;;;;;;4.18;1.20;;;;;;;;;;5054874;28;20037;-61
2022/07/14 09:03:11;;;;;;;4.47;0.90;;;;;;;;;;5060488;28;20562;-60
2022/07/14 09:05:39;;;;;;;4.00;0.70;;;;;;;;;;5060716;28;20424;-60
2022/07/14 09:08:05;;;;;;;3.58;0.65;;;;;;;;;;5057324;28;20119;-61
2022/07/14 09:10:31;;;;;;;6.28;0.90;;;;;;;;;;5053809;28;20522;-60
2022/07/14 09:13:11;;;;;;;2.63;0.95;;;;;;;;;;5049386;28;20064;-60
2022/07/14 09:15:46;;;;;;;1.92;0.70;;;;;;;;;;5049086;28;20048;-60
2022/07/14 09:18:28;;;;;;;5.47;0.88;;;;;;;;;;5056189;28;20056;-60
2022/07/14 09:20:55;;;;;;;4.35;0.75;;;;;;;;;;5056682;28;20053;-60
2022/07/14 09:23:31;;;;;;;3.28;1.00;;;;;;;;;;5057088;28;20041;-60
2022/07/14 09:26:17;;;;;;;2.50;1.00;;;;;;;;;;5056858;28;20057;-60
2022/07/14 09:28:44;;;;;;;5.07;0.90;;;;;;;;;;5057861;28;20410;-61
2022/07/14 09:31:23;;;;;;;2.78;0.68;;;;;;;;;;5056353;28;20495;-60
2022/07/14 09:33:50;;;;;;;3.13;0.70;;;;;;;;;;5056148;28;20079;-61
2022/07/14 09:36:20;;;;;;;2.20;0.70;;;;;;;;;;5057556;28;20097;-60
2022/07/14 09:38:46;;;;;;;3.05;0.77;;;;;;;;;;5058167;28;20053;-60
2022/07/14 09:41:12;;;;;;;2.40;0.70;;;;;;;;;;5055990;28;20105;-60
2022/07/14 09:43:38;;;;;;;4.32;0.70;;;;;;;;;;5056879;28;20055;-60
2022/07/14 09:46:04;;;;;;;2.88;0.82;;;;;;;;;;5057993;28;21134;-60
2022/07/14 09:48:30;;;;;;;4.60;0.90;;;;;;;;;;5056173;28;20044;-60
2022/07/14 09:50:57;;;;;;;2.83;1.30;;;;;;;;;;5057195;28;20043;-60
2022/07/14 09:53:23;;;;;;;2.10;0.70;;;;;;;;;;5057454;28;21138;-60
2022/07/14 09:56:01;;;;;;;4.13;0.90;;;;;;;;;;5055701;28;20042;-60
2022/07/14 09:58:31;;;;;;;3.45;0.50;;;;;;;;;;5055965;28;20044;-60
2022/07/14 10:01:03;;;;;;;4.70;0.70;;;;;;;;;;5056755;28;20126;-60
2022/07/14 10:03:30;;;;;;;2.45;0.45;;;;;;;;;;5057928;28;20119;-60
2022/07/14 10:05:57;;;;;;;3.95;0.75;;;;;;;;;;5056589;28;20036;-60
2022/07/14 10:08:24;;;;;;;3.72;0.73;;;;;;;;;;5055654;28;20097;-60
2022/07/14 10:10:52;;;;;;;3.65;0.68;;;;;;;;;;5057483;28;20688;-60
2022/07/14 10:13:19;;;;;;;2.90;0.60;;;;;;;;;;5056923;28;20068;-60
2022/07/14 10:15:47;;;;;;;2.45;0.73;;;;;;;;;;5055787;28;20044;-61
2022/07/14 10:18:13;;;;;;;2.83;0.70;;;;;;;;;;5056024;28;20136;-60
2022/07/14 10:20:40;;;;;;;2.25;0.80;;;;;;;;;;5058040;28;20045;-61
2022/07/14 10:23:06;;;;;;;2.88;0.60;;;;;;;;;;5055676;28;20105;-60
2022/07/14 10:25:33;;;;;;;2.00;0.50;;;;;;;;;;5057386;28;20048;-60
2022/07/14 10:28:00;;;;;;;2.05;0.63;;;;;;;;;;5054894;28;20436;-60
2022/07/14 10:30:35;;;;;;;5.82;0.88;;;;;;;;;;5057659;28;20431;-60
2022/07/14 10:33:06;;;;;;;3.78;0.77;;;;;;;;;;5056169;28;20116;-60
2022/07/14 10:35:45;;;;;;;2.90;0.75;;;;;;;;;;5055569;28;20511;-60
2022/07/14 10:38:26;;;;;;;2.55;0.68;;;;;;;;;;5055472;28;20071;-60
2022/07/14 10:40:55;;;;;;;2.63;0.80;;;;;;;;;;5055568;28;20045;-60
2022/07/14 10:43:25;;;;;;;5.03;0.73;;;;;;;;;;5058180;28;20061;-60
2022/07/14 10:45:52;;;;;;;4.45;0.57;;;;;;;;;;5055285;28;20151;-60
2022/07/14 10:48:28;;;;;;;4.45;0.80;;;;;;;;;;5055600;28;20076;-60
2022/07/14 10:51:32;;;;;;;5.60;0.90;;;;;;;;;;5055592;28;20124;-60
2022/07/14 10:54:05;;;;;;;2.85;0.73;;;;;;;;;;5003498;28;20050;-60
2022/07/14 10:56:32;;;;;;;4.82;0.70;;;;;;;;;;5040589;28;20136;-60
2022/07/14 10:59:17;;;;;;;2.83;0.70;;;;;;;;;;5047176;28;20045;-60
2022/07/14 11:02:01;;;;;;;4.05;0.50;;;;;;;;;;5046823;28;20526;-60
2022/07/14 11:04:46;;;;;;;2.97;0.50;;;;;;;;;;5047344;28;20446;-60
2022/07/14 11:07:30;;;;;;;4.82;1.20;;;;;;;;;;5048006;28;20080;-60
2022/07/14 11:09:56;;;;;;;3.47;0.80;;;;;;;;;;5047854;28;20060;-60
2022/07/14 11:12:22;;;;;;;2.35;0.80;;;;;;;;;;5047926;28;20041;-60
2022/07/14 11:14:48;;;;;;;3.95;0.93;;;;;;;;;;5047880;28;20354;-60
2022/07/14 11:17:36;;;;;;;14.43;9.05;;;;;;;;;;5048459;28;20522;-60
2022/07/14 11:20:05;;;;;;;5.10;1.17;;;;;;;;;;5049019;28;20453;-59
2022/07/14 11:22:31;;;;;;;4.68;1.00;;;;;;;;;;5051844;28;20402;-60
2022/07/14 11:25:01;;;;;;;4.45;1.00;;;;;;;;;;5051078;28;20044;-60
2022/07/14 11:27:29;;;;;;;2.30;0.70;;;;;;;;;;5050942;28;20037;-60
2022/07/14 11:29:57;;;;;;;3.20;1.05;;;;;;;;;;5051507;28;20095;-60
2022/07/14 11:32:33;;;;;;;5.38;0.82;;;;;;;;;;5051256;28;20044;-60
2022/07/14 11:38:01;;;;;;;2.83;0.82;;;;;;;;;;5051060;28;20045;-59
2022/07/14 11:40:43;;;;;;;7.07;1.15;;;;;;;;;;5051510;28;20796;-60
2022/07/14 11:43:28;;;;;;;4.13;1.00;;;;;;;;;;5050748;28;20057;-60
2022/07/14 11:45:58;;;;;;;2.42;0.70;;;;;;;;;;5050449;28;20049;-60
2022/07/14 11:48:56;;;;;;;3.72;0.63;;;;;;;;;;5051172;28;20047;-60
2022/07/14 11:51:22;;;;;;;5.20;1.05;;;;;;;;;;5027385;28;20511;-60
2022/07/14 11:53:59;;;;;;;2.55;0.90;;;;;;;;;;5050576;28;20102;-60
2022/07/14 11:56:26;;;;;;;3.85;1.30;;;;;;;;;;5050864;28;20045;-60
2022/07/14 11:58:52;;;;;;;2.58;1.05;;;;;;;;;;5050634;28;20041;-60
2022/07/14 12:01:18;;;;;;;2.22;0.70;;;;;;;;;;5050766;28;20045;-60
2022/07/14 12:03:45;;;;;;;2.22;0.75;;;;;;;;;;5050873;28;20564;-59
2022/07/14 12:06:11;;;;;;;4.60;0.98;;;;;;;;;;5050389;28;20053;-60
2022/07/14 12:08:39;;;;;;;4.90;1.10;;;;;;;;;;5050554;28;20132;-60
2022/07/14 12:11:08;;;;;;;4.88;0.80;;;;;;;;;;5050617;28;20053;-60
2022/07/14 12:13:44;;;;;;;2.75;0.75;;;;;;;;;;5050609;28;20124;-60
2022/07/14 12:16:10;;;;;;;3.20;0.60;;;;;;;;;;5049258;28;20136;-60
2022/07/14 12:18:36;;;;;;;2.28;0.88;;;;;;;;;;5050155;28;20119;-60
2022/07/14 12:21:02;;;;;;;2.35;0.77;;;;;;;;;;5049677;28;20125;-59
2022/07/14 12:23:28;;;;;;;3.17;1.00;;;;;;;;;;5050396;28;20041;-58
2022/07/14 12:25:58;;;;;;;3.38;0.90;;;;;;;;;;5049396;28;20052;-58
2022/07/14 12:28:26;;;;;;;3.45;0.68;;;;;;;;;;5049828;28;20041;-58
2022/07/14 12:30:59;;;;;;;2.47;0.57;;;;;;;;;;5048857;28;20387;-59
2022/07/14 12:33:36;;;;;;;2.38;0.70;;;;;;;;;;5049928;28;20045;-57
2022/07/14 12:36:02;;;;;;;3.78;0.80;;;;;;;;;;5050091;28;20055;-58
2022/07/14 12:38:32;;;;;;;3.10;0.80;;;;;;;;;;5050172;28;20067;-58
2022/07/14 12:40:59;;;;;;;8.20;1.08;;;;;;;;;;5049812;28;20692;-58
2022/07/14 12:43:25;;;;;;;3.13;1.20;;;;;;;;;;5049350;28;20065;-58
2022/07/14 12:45:59;;;;;;;4.22;0.90;;;;;;;;;;5049838;28;20551;-59
2022/07/14 12:48:27;;;;;;;3.35;0.82;;;;;;;;;;5049521;28;20083;-60
2022/07/14 12:50:53;;;;;;;3.80;0.80;;;;;;;;;;5049724;28;20083;-59
2022/07/14 12:53:20;;;;;;;4.80;1.00;;;;;;;;;;5049324;28;20052;-60
2022/07/14 12:55:46;;;;;;;2.42;0.70;;;;;;;;;;5049631;28;20495;-59
2022/07/14 12:58:13;;;;;;;3.53;0.70;;;;;;;;;;5049154;28;20049;-60
2022/07/14 13:00:40;;;;;;;3.10;0.70;;;;;;;;;;5049420;28;20052;-60
2022/07/14 13:03:07;;;;;;;2.80;1.08;;;;;;;;;;5049347;28;20964;-60
2022/07/14 13:05:33;;;;;;;2.40;1.05;;;;;;;;;;5049650;28;20048;-60
2022/07/14 13:07:59;;;;;;;3.15;0.93;;;;;;;;;;5049186;28;20044;-60
2022/07/14 13:10:26;;;;;;;2.95;0.55;;;;;;;;;;5049218;28;20445;-59
2022/07/14 13:12:56;;;;;;;2.33;0.63;;;;;;;;;;5049285;28;20076;-59
2022/07/14 13:15:22;;;;;;;2.30;0.70;;;;;;;;;;5049372;28;20045;-59
2022/07/14 13:17:48;;;;;;;2.38;0.70;;;;;;;;;;5048813;28;20090;-59
2022/07/14 13:20:33;;;;;;;3.03;0.80;;;;;;;;;;5048878;28;20453;-59
2022/07/14 13:22:59;;;;;;;2.55;0.95;;;;;;;;;;5049164;28;20646;-59
2022/07/14 13:25:25;;;;;;;2.33;0.70;;;;;;;;;;5049144;28;20499;-59
2022/07/14 13:27:51;;;;;;;2.35;0.73;;;;;;;;;;5048675;28;20040;-59
2022/07/14 13:30:17;;;;;;;4.47;0.80;;;;;;;;;;5049100;28;20037;-60
2022/07/14 13:32:43;;;;;;;7.07;1.42;;;;;;;;;;5048966;28;20048;-59
2022/07/14 13:35:09;;;;;;;4.22;0.70;;;;;;;;;;5048805;28;20102;-60
2022/07/14 13:37:35;;;;;;;2.60;0.93;;;;;;;;;;5049223;28;20045;-59
2022/07/14 13:40:01;;;;;;;5.47;1.08;;;;;;;;;;5048236;28;20048;-59
2022/07/14 13:42:27;;;;;;;3.50;1.00;;;;;;;;;;5047609;28;20083;-59
2022/07/14 13:44:53;;;;;;;2.40;0.77;;;;;;;;;;5048426;28;20092;-59
2022/07/14 13:47:20;;;;;;;2.92;0.63;;;;;;;;;;5048712;28;20049;-60
2022/07/14 13:52:31;;;;;;;3.53;0.90;;;;;;;;;;5048691;28;20087;-59
2022/07/14 13:54:57;;;;;;;3.65;0.60;;;;;;;;;;5048586;28;20076;-60
2022/07/14 13:57:23;;;;;;;4.72;1.00;;;;;;;;;;5048322;28;20521;-59
2022/07/14 13:59:49;;;;;;;3.10;0.77;;;;;;;;;;5047875;28;20059;-59
2022/07/14 14:02:15;;;;;;;2.47;0.60;;;;;;;;;;5048466;28;20090;-59
2022/07/14 14:04:41;;;;;;;2.55;0.70;;;;;;;;;;5048640;28;20041;-59
2022/07/14 14:07:07;;;;;;;3.47;0.52;;;;;;;;;;5048313;28;20048;-59
2022/07/14 14:09:33;;;;;;;2.90;0.50;;;;;;;;;;5047951;28;20763;-60
2022/07/14 14:11:59;;;;;;;2.30;0.50;;;;;;;;;;5048014;28;20045;-60
2022/07/14 14:14:25;;;;;;;3.22;0.50;;;;;;;;;;5048512;28;20045;-59
2022/07/14 14:16:51;;;;;;;2.55;0.50;;;;;;;;;;5048454;28;20075;-59
2022/07/14 14:19:18;;;;;;;3.40;0.57;;;;;;;;;;5047830;28;20053;-60
2022/07/14 14:21:45;;;;;;;2.40;0.60;;;;;;;;;;5047281;28;20080;-59
2022/07/14 14:24:11;;;;;;;4.25;0.60;;;;;;;;;;5047989;28;20049;-59
2022/07/14 14:26:37;;;;;;;4.90;0.70;;;;;;;;;;5048460;28;20087;-59
2022/07/14 14:29:03;;;;;;;3.50;0.95;;;;;;;;;;5048005;28;20414;-60
2022/07/14 14:31:29;;;;;;;5.80;0.88;;;;;;;;;;5048249;28;20063;-59
2022/07/14 14:33:55;;;;;;;4.97;0.80;;;;;;;;;;5047678;28;20049;-59
2022/07/14 14:36:21;;;;;;;6.18;0.70;;;;;;;;;;5047891;28;20491;-59
2022/07/14 14:38:47;;;;;;;4.70;0.80;;;;;;;;;;5048066;28;20128;-60
2022/07/14 14:41:13;;;;;;;1.63;0.47;;;;;;;;;;5061672;28;20045;-59
2022/07/14 14:43:39;;;;;;;2.97;0.80;;;;;;;;;;5053195;28;20550;-60
2022/07/14 14:46:05;;;;;;;2.63;0.73;;;;;;;;;;5059950;28;20182;-59
2022/07/14 14:48:31;;;;;;;4.95;0.93;;;;;;;;;;5066578;28;20052;-58
2022/07/14 14:50:57;;;;;;;4.68;0.90;;;;;;;;;;5067902;28;21090;-59
2022/07/14 14:53:23;;;;;;;4.18;0.90;;;;;;;;;;5067490;28;20087;-59